createdAt,value
2023-05-22T00:00:14.330Z,17.73
2023-05-22T00:02:44.585Z,14.57
2023-05-22T00:05:13.126Z,20.20
2023-05-22T00:07:42.982Z,16.40
2023-05-22T00:10:11.859Z,16.83
2023-05-22T00:12:41.175Z,18.77
2023-05-22T00:15:10.100Z,19.77
2023-05-22T00:17:40.973Z,17.93
2023-05-22T00:20:11.052Z,17.93
2023-05-22T00:22:39.302Z,18.97
2023-05-22T00:25:08.470Z,16.43
2023-05-22T00:27:36.441Z,20.53
2023-05-22T00:30:09.266Z,18.00
2023-05-22T00:32:37.302Z,17.17
2023-05-22T00:35:06.595Z,22.53
2023-05-22T00:37:34.541Z,20.53
2023-05-22T00:40:02.471Z,17.20
2023-05-22T00:42:30.478Z,18.40
2023-05-22T00:44:58.336Z,20.10
2023-05-22T00:47:27.751Z,18.03
2023-05-22T00:49:56.249Z,20.33
2023-05-22T00:52:24.355Z,20.80
2023-05-22T00:54:54.899Z,24.07
2023-05-22T00:57:24.639Z,19.37
2023-05-22T00:59:52.546Z,20.20
2023-05-22T01:02:21.332Z,21.40
2023-05-22T01:04:50.547Z,20.20
2023-05-22T01:07:18.817Z,24.80
2023-05-22T01:09:46.675Z,20.30
2023-05-22T01:12:29.164Z,19.03
2023-05-22T01:15:01.096Z,21.93
2023-05-22T01:17:57.660Z,18.87
2023-05-22T01:20:32.332Z,21.03
2023-05-22T01:23:36.594Z,21.67
2023-05-22T01:26:22.106Z,20.83
2023-05-22T01:29:10.060Z,20.80
2023-05-22T01:31:41.103Z,19.17
2023-05-22T01:34:12.421Z,19.90
2023-05-22T01:36:41.460Z,18.93
2023-05-22T01:39:09.776Z,21.50
2023-05-22T01:41:41.878Z,19.43
2023-05-22T01:44:11.979Z,18.73
2023-05-22T01:46:41.260Z,22.60
2023-05-22T01:49:09.381Z,17.10
2023-05-22T01:51:43.212Z,19.67
2023-05-22T01:54:15.322Z,20.03
2023-05-22T01:56:48.908Z,20.50
2023-05-22T01:59:22.674Z,19.47
2023-05-22T02:01:53.972Z,20.67
2023-05-22T02:04:23.789Z,22.13
2023-05-22T02:06:53.537Z,22.40
2023-05-22T02:09:22.725Z,19.87
2023-05-22T02:11:50.641Z,22.00
2023-05-22T02:14:19.748Z,19.70
2023-05-22T02:16:47.862Z,20.43
2023-05-22T02:19:17.457Z,17.60
2023-05-22T02:21:47.474Z,20.23
2023-05-22T02:24:15.388Z,22.37
2023-05-22T02:26:43.994Z,20.50
2023-05-22T02:29:12.986Z,21.10
2023-05-22T02:31:41.018Z,24.60
2023-05-22T02:34:12.013Z,21.63
2023-05-22T02:36:42.003Z,19.93
2023-05-22T02:39:10.019Z,22.77
2023-05-22T02:41:38.009Z,20.37
2023-05-22T02:44:06.257Z,23.90
2023-05-22T02:46:34.269Z,25.20
2023-05-22T02:49:02.285Z,20.40
2023-05-22T02:51:30.489Z,21.10
2023-05-22T02:53:59.761Z,20.33
2023-05-22T02:56:29.056Z,19.00
2023-05-22T02:58:57.301Z,22.03
2023-05-22T03:01:26.606Z,22.23
2023-05-22T03:03:55.969Z,22.20
2023-05-22T03:06:25.672Z,23.03
2023-05-22T03:08:54.516Z,22.80
2023-05-22T03:11:23.806Z,23.80
2023-05-22T03:13:51.718Z,18.50
2023-05-22T03:16:20.054Z,20.00
2023-05-22T03:18:51.153Z,21.73
2023-05-22T03:21:19.668Z,21.53
2023-05-22T03:23:49.351Z,19.67
2023-05-22T03:26:17.514Z,18.93
2023-05-22T03:28:47.453Z,23.03
2023-05-22T03:31:15.477Z,23.57
2023-05-22T03:33:58.451Z,20.27
2023-05-22T03:36:26.609Z,20.30
2023-05-22T03:38:54.632Z,24.07
2023-05-22T03:41:22.551Z,28.70
2023-05-22T03:43:51.931Z,21.50
2023-05-22T03:46:20.962Z,21.03
2023-05-22T03:48:48.973Z,21.23
2023-05-22T03:51:20.028Z,20.73
2023-05-22T03:53:48.268Z,18.93
2023-05-22T03:56:16.460Z,18.80
2023-05-22T03:58:44.401Z,20.60
2023-05-22T04:01:13.893Z,21.57
2023-05-22T04:03:41.839Z,20.67
2023-05-22T04:06:13.726Z,24.40
2023-05-22T04:08:41.744Z,20.27
2023-05-22T04:11:09.619Z,22.33
2023-05-22T04:13:37.530Z,20.47
2023-05-22T04:16:05.972Z,19.10
2023-05-22T04:18:35.310Z,21.03
2023-05-22T04:21:03.458Z,25.07
2023-05-22T04:23:31.937Z,20.03
2023-05-22T04:26:02.353Z,19.23
2023-05-22T04:28:30.400Z,24.80
2023-05-22T04:30:58.536Z,19.33
2023-05-22T04:33:26.456Z,18.97
2023-05-22T04:35:55.895Z,19.70
2023-05-22T04:38:26.269Z,24.00
2023-05-22T04:40:55.145Z,17.93
2023-05-22T04:43:26.762Z,18.83
2023-05-22T04:45:56.462Z,17.13
2023-05-22T04:48:24.410Z,19.20
2023-05-22T04:50:54.290Z,18.30
2023-05-22T04:53:23.705Z,19.47
2023-05-22T04:55:51.664Z,23.53
2023-05-22T04:58:19.656Z,17.17
2023-05-22T05:00:47.669Z,20.50
2023-05-22T05:03:15.745Z,19.97
2023-05-22T05:05:44.904Z,17.63
2023-05-22T05:08:13.080Z,17.50
2023-05-22T05:10:42.442Z,20.03
2023-05-22T05:13:10.359Z,15.93
2023-05-22T05:15:40.510Z,17.60
2023-05-22T05:18:09.353Z,21.13
2023-05-22T05:20:37.582Z,18.80
2023-05-22T05:23:05.624Z,15.73
2023-05-22T05:25:33.583Z,19.30
2023-05-22T05:28:02.940Z,15.97
2023-05-22T05:30:31.870Z,16.50
2023-05-22T05:33:29.100Z,20.10
2023-05-22T05:36:10.073Z,17.67
2023-05-22T05:38:38.263Z,24.53
2023-05-22T05:41:10.024Z,17.67
2023-05-22T05:43:40.033Z,17.70
2023-05-22T05:46:10.121Z,16.80
2023-05-22T05:48:38.083Z,21.80
2023-05-22T05:51:06.863Z,17.23
2023-05-22T05:53:40.730Z,16.67
2023-05-22T05:56:09.469Z,14.70
2023-05-22T05:58:40.074Z,15.53
2023-05-22T06:01:28.448Z,17.40
2023-05-22T06:03:57.815Z,18.10
2023-05-22T06:06:29.879Z,18.60
2023-05-22T06:09:15.771Z,16.70
2023-05-22T06:12:02.638Z,25.83
2023-05-22T06:14:32.087Z,19.50
2023-05-22T06:17:00.028Z,16.67
2023-05-22T06:19:28.133Z,16.03
2023-05-22T06:21:56.195Z,17.60
2023-05-22T06:24:24.128Z,19.63
2023-05-22T06:26:52.984Z,16.93
2023-05-22T06:29:21.254Z,16.40
2023-05-22T06:31:50.856Z,16.40
2023-05-22T06:34:22.850Z,16.80
2023-05-22T06:36:53.136Z,17.40
2023-05-22T06:39:29.166Z,18.93
2023-05-22T06:42:28.804Z,14.20
2023-05-22T06:45:22.830Z,15.30
2023-05-22T06:48:08.519Z,17.67
2023-05-22T06:50:42.238Z,14.67
2023-05-22T06:53:10.187Z,12.67
2023-05-22T06:55:38.185Z,13.57
2023-05-22T06:58:13.139Z,13.90
2023-05-22T07:00:41.372Z,16.63
2023-05-22T07:03:17.228Z,18.27
2023-05-22T07:06:18.265Z,19.60
2023-05-22T07:08:46.396Z,17.70
2023-05-22T07:11:14.290Z,19.80
2023-05-22T07:13:42.578Z,17.20
2023-05-22T07:16:11.144Z,25.30
2023-05-22T07:18:42.006Z,20.83
2023-05-22T07:21:10.140Z,20.40
2023-05-22T07:23:38.019Z,17.73
2023-05-22T07:26:08.409Z,21.13
2023-05-22T07:28:39.846Z,17.53
2023-05-22T07:31:14.839Z,19.90
2023-05-22T07:33:44.253Z,21.47
2023-05-22T07:36:19.063Z,22.60
2023-05-22T07:38:49.977Z,26.37
2023-05-22T07:41:18.750Z,22.00
2023-05-22T07:43:47.456Z,19.00
2023-05-22T07:46:19.605Z,22.53
2023-05-22T07:49:03.198Z,21.17
2023-05-22T07:51:35.342Z,16.30
2023-05-22T07:54:10.120Z,21.13
2023-05-22T07:56:42.434Z,15.27
2023-05-22T07:59:19.537Z,15.17
2023-05-22T08:01:48.720Z,24.63
2023-05-22T08:04:18.156Z,19.20
2023-05-22T08:06:46.386Z,15.90
2023-05-22T08:09:14.341Z,18.40
2023-05-22T08:11:42.945Z,18.50
2023-05-22T08:14:11.034Z,15.87
2023-05-22T08:16:38.959Z,17.97
2023-05-22T08:19:08.009Z,16.37
2023-05-22T08:21:37.619Z,19.60
2023-05-22T08:24:05.999Z,14.00
2023-05-22T08:26:33.998Z,14.10
2023-05-22T08:29:03.164Z,17.87
2023-05-22T08:31:31.277Z,15.23
2023-05-22T08:34:02.603Z,16.50
2023-05-22T08:36:31.438Z,12.87
2023-05-22T08:39:01.315Z,10.73
2023-05-22T08:41:29.642Z,13.43
2023-05-22T08:43:57.721Z,12.77
2023-05-22T08:46:28.327Z,12.30
2023-05-22T08:48:58.623Z,13.63
2023-05-22T08:51:31.387Z,12.67
2023-05-22T08:54:02.098Z,12.70
2023-05-22T08:56:31.886Z,12.00
2023-05-22T08:59:01.311Z,11.83
2023-05-22T09:01:30.099Z,11.10
2023-05-22T09:04:01.734Z,12.97
2023-05-22T09:06:30.246Z,11.33
2023-05-22T09:08:58.708Z,11.40
2023-05-22T09:11:28.106Z,10.27
2023-05-22T09:14:08.015Z,9.57
2023-05-22T09:16:45.299Z,12.03
2023-05-22T09:19:13.972Z,11.00
2023-05-22T09:21:44.428Z,10.30
2023-05-22T09:24:17.880Z,9.63
2023-05-22T09:26:48.303Z,14.50
2023-05-22T09:29:16.241Z,12.67
2023-05-22T09:31:44.640Z,10.90
2023-05-22T09:34:15.727Z,10.60
2023-05-22T09:36:43.973Z,9.60
2023-05-22T09:39:11.993Z,11.47
2023-05-22T09:41:41.049Z,10.63
2023-05-22T09:44:16.023Z,10.67
2023-05-22T09:46:47.823Z,11.73
2023-05-22T09:49:17.069Z,10.53
2023-05-22T09:51:48.089Z,12.50
2023-05-22T09:54:17.602Z,11.07
2023-05-22T09:56:46.115Z,11.00
2023-05-22T09:59:17.182Z,10.80
2023-05-22T10:01:45.825Z,11.90
2023-05-22T10:04:15.755Z,12.70
2023-05-22T10:07:00.077Z,10.30
2023-05-22T10:09:36.073Z,11.30
2023-05-22T10:12:07.686Z,9.73
2023-05-22T10:14:37.565Z,11.63
2023-05-22T10:17:07.299Z,11.50
2023-05-22T10:19:42.291Z,11.77
2023-05-22T10:22:16.902Z,11.10
2023-05-22T10:24:48.422Z,10.80
2023-05-22T10:27:17.481Z,11.53
2023-05-22T10:29:54.203Z,12.47
2023-05-22T10:32:28.954Z,15.23
2023-05-22T10:35:08.143Z,11.80
2023-05-22T10:37:51.403Z,13.30
2023-05-22T10:40:28.854Z,11.83
2023-05-22T10:43:02.298Z,12.23
2023-05-22T10:45:33.517Z,10.73
2023-05-22T10:48:06.116Z,10.60
2023-05-22T10:50:34.659Z,11.17
2023-05-22T10:53:24.650Z,15.43
2023-05-22T10:55:53.500Z,11.00
2023-05-22T10:58:27.554Z,10.30
2023-05-22T11:01:16.467Z,10.17
2023-05-22T11:03:57.978Z,9.90
2023-05-22T11:06:33.470Z,9.13
2023-05-22T11:09:01.600Z,11.40
2023-05-22T11:11:29.501Z,14.70
2023-05-22T11:14:03.279Z,9.17
2023-05-22T11:16:34.532Z,9.77
2023-05-22T11:19:21.198Z,11.63
2023-05-22T11:21:51.129Z,10.20
2023-05-22T11:24:19.488Z,9.50
2023-05-22T11:27:02.218Z,9.47
2023-05-22T11:29:30.602Z,10.87
2023-05-22T11:32:00.264Z,8.80
2023-05-22T11:34:28.258Z,12.87
2023-05-22T11:36:59.302Z,12.43
2023-05-22T11:39:27.345Z,9.60
2023-05-22T11:41:55.517Z,10.38
2023-05-22T11:44:23.477Z,9.17
2023-05-22T11:46:51.693Z,9.43
2023-05-22T11:49:23.991Z,9.83
2023-05-22T11:51:53.113Z,10.67
2023-05-22T11:54:22.264Z,9.73
2023-05-22T11:56:50.698Z,10.17
2023-05-22T11:59:18.579Z,10.20
2023-05-22T12:01:46.524Z,9.83
2023-05-22T12:04:15.772Z,11.03
2023-05-22T12:06:45.334Z,9.77
2023-05-22T12:09:13.394Z,9.40
2023-05-22T12:11:41.473Z,9.63
2023-05-22T12:14:12.832Z,10.25
2023-05-22T12:16:41.242Z,8.90
2023-05-22T12:19:09.901Z,9.10
2023-05-22T12:21:39.434Z,8.70
2023-05-22T12:24:23.389Z,9.15
2023-05-22T12:27:00.032Z,9.70
2023-05-22T12:29:43.251Z,9.18
2023-05-22T12:32:12.683Z,7.65
2023-05-22T12:34:45.095Z,8.15
2023-05-22T12:37:20.085Z,7.70
2023-05-22T12:39:58.025Z,14.80
2023-05-22T12:42:26.442Z,8.98
2023-05-22T12:44:56.102Z,8.52
2023-05-22T12:47:25.327Z,8.15
2023-05-22T12:49:55.530Z,10.70
2023-05-22T12:52:25.475Z,9.80
2023-05-22T12:55:22.968Z,8.07
2023-05-22T12:57:51.137Z,6.80
2023-05-22T13:00:19.581Z,7.50
2023-05-22T13:02:47.694Z,6.43
2023-05-22T13:05:16.086Z,5.88
2023-05-22T13:07:43.988Z,8.25
2023-05-22T13:10:12.455Z,7.55
2023-05-22T13:12:41.752Z,7.85
2023-05-22T13:15:11.914Z,7.97
2023-05-22T13:17:39.877Z,8.45
2023-05-22T13:20:09.226Z,10.88
2023-05-22T13:22:37.709Z,7.80
2023-05-22T13:25:06.360Z,7.93
2023-05-22T13:27:34.397Z,12.40
2023-05-22T13:30:04.451Z,8.47
2023-05-22T13:32:34.237Z,9.27
2023-05-22T13:35:02.207Z,8.70
2023-05-22T13:37:30.112Z,9.03
2023-05-22T13:39:58.096Z,8.70
2023-05-22T13:42:26.095Z,8.60
2023-05-22T13:44:54.012Z,11.00
2023-05-22T13:47:24.039Z,7.65
2023-05-22T13:49:52.120Z,7.97
2023-05-22T13:52:20.085Z,7.60
2023-05-22T13:55:01.378Z,8.13
2023-05-22T13:57:29.230Z,8.02
2023-05-22T13:59:57.444Z,8.20
2023-05-22T14:02:26.757Z,8.18
2023-05-22T14:04:54.709Z,9.13
2023-05-22T14:07:23.645Z,11.50
2023-05-22T14:09:51.584Z,8.90
2023-05-22T14:12:19.474Z,9.83
2023-05-22T14:14:47.388Z,9.77
2023-05-22T14:17:15.611Z,9.83
2023-05-22T14:19:44.933Z,13.80
2023-05-22T14:22:13.311Z,9.57
2023-05-22T14:24:41.539Z,12.10
2023-05-22T14:27:10.083Z,10.40
2023-05-22T14:29:38.202Z,10.20
2023-05-22T14:32:06.601Z,9.80
2023-05-22T14:34:34.575Z,11.77
2023-05-22T14:37:03.888Z,11.50
2023-05-22T14:39:36.809Z,10.60
2023-05-22T14:42:09.674Z,13.80
2023-05-22T14:44:38.876Z,9.60
2023-05-22T14:47:07.562Z,10.90
2023-05-22T14:49:36.160Z,9.30
2023-05-22T14:52:05.660Z,10.30
2023-05-22T14:54:34.344Z,10.23
2023-05-22T14:57:02.273Z,9.43
2023-05-22T14:59:30.117Z,9.70
2023-05-22T15:01:58.093Z,9.00
2023-05-22T15:04:26.066Z,9.47
2023-05-22T15:06:54.028Z,10.03
2023-05-22T15:09:23.327Z,8.30
2023-05-22T15:11:51.261Z,10.03
2023-05-22T15:14:20.042Z,10.53
2023-05-22T15:16:48.898Z,10.10
2023-05-22T15:19:17.407Z,7.50
2023-05-22T15:21:45.509Z,7.90
2023-05-22T15:24:14.324Z,7.53
2023-05-22T15:26:43.907Z,9.50
2023-05-22T15:29:12.148Z,8.80
2023-05-22T15:31:40.717Z,9.40
2023-05-22T15:34:08.829Z,8.47
2023-05-22T15:36:37.506Z,8.53
2023-05-22T15:39:05.731Z,14.33
2023-05-22T15:41:33.728Z,7.80
2023-05-22T15:44:11.079Z,9.30
2023-05-22T15:46:44.613Z,10.60
2023-05-22T15:49:12.656Z,8.70
2023-05-22T15:51:41.258Z,8.63
2023-05-22T15:54:12.791Z,12.67
2023-05-22T15:56:41.399Z,15.43
2023-05-22T15:59:10.956Z,9.10
2023-05-22T16:01:38.890Z,18.83
2023-05-22T16:04:07.251Z,12.70
2023-05-22T16:06:35.134Z,12.33
2023-05-22T16:09:03.092Z,10.83
2023-05-22T16:11:34.211Z,10.13
2023-05-22T16:14:02.381Z,10.27
2023-05-22T16:16:31.880Z,9.77
2023-05-22T16:18:59.868Z,10.80
2023-05-22T16:21:27.877Z,11.80
2023-05-22T16:23:55.856Z,14.03
2023-05-22T16:26:23.998Z,13.23
2023-05-22T16:28:52.062Z,14.13
2023-05-22T16:31:20.283Z,14.63
2023-05-22T16:33:50.237Z,12.70
2023-05-22T16:36:18.163Z,13.87
2023-05-22T16:38:46.678Z,11.87
2023-05-22T16:41:15.113Z,10.70
2023-05-22T16:43:44.330Z,11.73
2023-05-22T16:46:12.395Z,14.43
2023-05-22T16:48:41.746Z,10.67
2023-05-22T16:51:14.961Z,17.67
2023-05-22T16:53:43.277Z,14.27
2023-05-22T16:56:11.293Z,11.23
2023-05-22T16:58:39.488Z,9.80
2023-05-22T17:01:08.363Z,12.33
2023-05-22T17:03:36.509Z,11.40
2023-05-22T17:06:06.440Z,8.50
2023-05-22T17:08:35.821Z,9.13
2023-05-22T17:11:04.278Z,8.73
2023-05-22T17:13:32.660Z,11.87
2023-05-22T17:16:01.173Z,10.57
2023-05-22T17:18:31.134Z,10.00
2023-05-22T17:21:03.957Z,10.33
2023-05-22T17:23:32.152Z,13.40
2023-05-22T17:26:02.547Z,13.03
2023-05-22T17:28:31.371Z,11.93
2023-05-22T17:30:59.768Z,10.03
2023-05-22T17:35:14.151Z,11.30
2023-05-22T17:37:42.215Z,10.80
2023-05-22T17:40:11.125Z,15.00
2023-05-22T17:42:39.338Z,13.07
2023-05-22T17:45:11.913Z,16.23
2023-05-22T17:47:40.964Z,13.63
2023-05-22T17:50:10.632Z,13.60
2023-05-22T17:52:41.080Z,15.70
2023-05-22T17:55:12.303Z,16.27
2023-05-22T17:57:42.983Z,17.30
2023-05-22T18:00:15.933Z,16.93
2023-05-22T18:02:44.578Z,13.47
2023-05-22T18:05:16.201Z,16.53
2023-05-22T18:07:49.866Z,11.20
2023-05-22T18:10:19.083Z,13.00
2023-05-22T18:12:47.961Z,10.50
2023-05-22T18:15:16.921Z,9.37
2023-05-22T18:17:45.484Z,10.80
2023-05-22T18:20:14.067Z,9.27
2023-05-22T18:22:42.305Z,10.97
2023-05-22T18:25:13.422Z,10.63
2023-05-22T18:27:41.418Z,10.07
2023-05-22T18:30:10.362Z,13.17
2023-05-22T18:32:38.938Z,9.40
2023-05-22T18:35:10.372Z,8.90
2023-05-22T18:37:39.559Z,8.83
2023-05-22T18:40:11.192Z,8.73
2023-05-22T18:42:41.209Z,7.87
2023-05-22T18:45:12.321Z,8.87
2023-05-22T18:47:41.737Z,11.17
2023-05-22T18:50:10.603Z,12.60
2023-05-22T18:52:43.026Z,8.90
2023-05-22T18:55:12.748Z,7.37
2023-05-22T18:57:42.055Z,8.47
2023-05-22T19:00:11.276Z,12.03
2023-05-22T19:02:39.244Z,11.17
2023-05-22T19:05:08.077Z,11.97
2023-05-22T19:07:36.469Z,9.40
2023-05-22T19:10:07.087Z,9.40
2023-05-22T19:12:36.006Z,8.47
2023-05-22T19:15:06.925Z,9.97
2023-05-22T19:17:39.578Z,8.37
2023-05-22T19:20:09.718Z,9.10
2023-05-22T19:22:38.429Z,8.93
2023-05-22T19:25:08.503Z,8.70
2023-05-22T19:27:39.092Z,8.77
2023-05-22T19:30:11.472Z,8.17
2023-05-22T19:32:40.267Z,7.90
2023-05-22T19:35:09.568Z,7.93
2023-05-22T19:37:40.474Z,11.37
2023-05-22T19:40:11.396Z,9.30
2023-05-22T19:42:40.166Z,10.00
2023-05-22T19:45:10.589Z,10.73
2023-05-22T19:47:38.493Z,10.47
2023-05-22T19:50:08.714Z,9.90
2023-05-22T19:52:37.197Z,10.27
2023-05-22T19:55:06.499Z,14.03
2023-05-22T19:57:35.015Z,11.80
2023-05-22T20:00:06.741Z,9.80
2023-05-22T20:02:36.221Z,12.10
2023-05-22T20:05:05.626Z,15.47
2023-05-22T20:07:34.060Z,12.33
2023-05-22T20:10:01.996Z,14.00
2023-05-22T20:12:29.913Z,14.20
2023-05-22T20:14:58.331Z,17.40
2023-05-22T20:17:26.892Z,14.60
2023-05-22T20:19:57.654Z,17.27
2023-05-22T20:22:26.178Z,19.00
2023-05-22T20:24:54.342Z,16.53
2023-05-22T20:27:22.225Z,19.73
2023-05-22T20:29:50.939Z,16.53
2023-05-22T20:32:18.859Z,23.57
2023-05-22T20:34:46.788Z,15.10
2023-05-22T20:37:16.124Z,15.50
2023-05-22T20:39:44.337Z,14.70
2023-05-22T20:42:13.102Z,16.13
2023-05-22T20:44:47.864Z,16.60
2023-05-22T20:47:15.848Z,17.30
2023-05-22T20:49:43.732Z,15.70
2023-05-22T20:52:13.412Z,19.83
2023-05-22T20:54:43.094Z,22.20
2023-05-22T20:57:11.011Z,32.03
2023-05-22T20:59:39.145Z,33.33
2023-05-22T21:02:07.406Z,34.60
2023-05-22T21:04:35.407Z,38.10
2023-05-22T21:07:03.401Z,45.70
2023-05-22T21:09:31.384Z,42.17
2023-05-22T21:12:01.057Z,42.50
2023-05-22T21:14:29.524Z,42.23
2023-05-22T21:16:57.701Z,47.30
2023-05-22T21:19:25.812Z,47.73
2023-05-22T21:21:53.704Z,51.07
2023-05-22T21:24:21.913Z,54.43
2023-05-22T21:26:53.002Z,65.80
2023-05-22T21:29:22.370Z,58.17
2023-05-22T21:31:50.453Z,72.40
2023-05-22T21:34:18.489Z,66.40
2023-05-22T21:36:46.350Z,61.00
2023-05-22T21:39:14.495Z,63.07
2023-05-22T21:41:42.351Z,69.57
2023-05-22T21:44:10.858Z,65.37
2023-05-22T21:46:40.143Z,72.20
2023-05-22T21:49:09.599Z,71.60
2023-05-22T21:51:37.505Z,66.93
2023-05-22T21:54:05.686Z,68.37
2023-05-22T21:56:33.567Z,76.73
2023-05-22T21:59:01.520Z,59.60
2023-05-22T22:01:29.453Z,70.10
2023-05-22T22:03:58.776Z,71.90
2023-05-22T22:06:26.787Z,62.90
2023-05-22T22:08:54.726Z,66.93
2023-05-22T22:11:22.630Z,65.50
2023-05-22T22:13:50.588Z,72.40
2023-05-22T22:16:18.944Z,77.67
2023-05-22T22:18:49.024Z,70.67
2023-05-22T22:21:18.559Z,78.53
2023-05-22T22:23:46.480Z,75.40
2023-05-22T22:26:14.524Z,71.37
2023-05-22T22:28:42.425Z,72.60
2023-05-22T22:31:10.332Z,76.17
2023-05-22T22:33:38.250Z,74.90
2023-05-22T22:36:06.632Z,84.40
2023-05-22T22:38:35.845Z,76.30
2023-05-22T22:41:05.170Z,71.20
2023-05-22T22:43:33.035Z,84.07
2023-05-22T22:46:01.104Z,87.23
2023-05-22T22:48:28.980Z,80.70
2023-05-22T22:50:57.907Z,85.33
2023-05-22T22:53:25.869Z,92.10
2023-05-22T22:55:57.483Z,94.53
2023-05-22T22:58:25.973Z,86.63
2023-05-22T23:00:53.893Z,98.27
2023-05-22T23:03:22.052Z,93.60
2023-05-22T23:05:50.420Z,91.00
2023-05-22T23:08:18.353Z,94.87
2023-05-22T23:10:49.248Z,98.30
2023-05-22T23:13:18.547Z,98.70
2023-05-22T23:15:46.595Z,101.27
2023-05-22T23:18:14.691Z,86.80
2023-05-22T23:20:42.574Z,97.90
2023-05-22T23:23:10.529Z,97.70
2023-05-22T23:25:38.701Z,98.43
2023-05-22T23:28:07.019Z,97.47
2023-05-22T23:30:36.486Z,90.10
2023-05-22T23:33:06.185Z,95.73
2023-05-22T23:35:34.108Z,100.90
2023-05-22T23:38:02.011Z,95.77
2023-05-22T23:40:29.874Z,90.70
2023-05-22T23:42:57.753Z,89.70
2023-05-22T23:45:28.597Z,95.33
2023-05-22T23:47:57.950Z,88.47
2023-05-22T23:50:25.941Z,87.80
2023-05-22T23:52:54.136Z,89.47
2023-05-22T23:55:22.095Z,86.47
2023-05-22T23:57:50.009Z,79.27
